sensor_id;sensor_type;location;lat;lon;timestamp;P1;durP1;ratioP1;P2;durP2;ratioP2
20391;SDS011;10355;53.688;10.078;2023-03-01T00:01:49;6.00;;;3.47;;
20391;SDS011;10355;53.688;10.078;2023-03-01T00:04:31;6.15;;;3.65;;
20391;SDS011;10355;53.688;10.078;2023-03-01T00:07:14;6.45;;;3.85;;
20391;SDS011;10355;53.688;10.078;2023-03-01T00:09:56;6.82;;;4.13;;
20391;SDS011;10355;53.688;10.078;2023-03-01T00:12:39;6.22;;;3.80;;
20391;SDS011;10355;53.688;10.078;2023-03-01T00:15:22;6.97;;;3.90;;
20391;SDS011;10355;53.688;10.078;2023-03-01T00:18:06;6.78;;;4.25;;
20391;SDS011;10355;53.688;10.078;2023-03-01T00:20:49;7.07;;;4.28;;
20391;SDS011;10355;53.688;10.078;2023-03-01T00:23:33;7.07;;;4.20;;
20391;SDS011;10355;53.688;10.078;2023-03-01T00:26:16;5.72;;;3.30;;
20391;SDS011;10355;53.688;10.078;2023-03-01T00:28:59;5.20;;;3.67;;
20391;SDS011;10355;53.688;10.078;2023-03-01T00:31:42;7.40;;;4.05;;
20391;SDS011;10355;53.688;10.078;2023-03-01T00:34:26;6.10;;;3.50;;
20391;SDS011;10355;53.688;10.078;2023-03-01T00:37:09;5.75;;;3.67;;
20391;SDS011;10355;53.688;10.078;2023-03-01T00:39:51;7.25;;;3.80;;
20391;SDS011;10355;53.688;10.078;2023-03-01T00:42:35;7.05;;;3.63;;
20391;SDS011;10355;53.688;10.078;2023-03-01T00:45:18;6.40;;;3.50;;
20391;SDS011;10355;53.688;10.078;2023-03-01T00:48:00;4.97;;;3.60;;
20391;SDS011;10355;53.688;10.078;2023-03-01T00:50:44;7.32;;;3.70;;
20391;SDS011;10355;53.688;10.078;2023-03-01T00:53:27;7.50;;;3.78;;
20391;SDS011;10355;53.688;10.078;2023-03-01T00:56:10;5.68;;;3.67;;
20391;SDS011;10355;53.688;10.078;2023-03-01T00:58:53;5.28;;;3.58;;
20391;SDS011;10355;53.688;10.078;2023-03-01T01:01:35;7.90;;;4.35;;
20391;SDS011;10355;53.688;10.078;2023-03-01T01:04:18;6.00;;;3.97;;
20391;SDS011;10355;53.688;10.078;2023-03-01T01:07:02;7.88;;;4.50;;
20391;SDS011;10355;53.688;10.078;2023-03-01T01:09:45;5.53;;;3.60;;
20391;SDS011;10355;53.688;10.078;2023-03-01T01:12:28;7.82;;;3.70;;
20391;SDS011;10355;53.688;10.078;2023-03-01T01:15:11;6.00;;;3.60;;
20391;SDS011;10355;53.688;10.078;2023-03-01T01:17:55;6.20;;;3.40;;
20391;SDS011;10355;53.688;10.078;2023-03-01T01:20:37;5.88;;;3.53;;
20391;SDS011;10355;53.688;10.078;2023-03-01T01:23:21;5.25;;;3.65;;
20391;SDS011;10355;53.688;10.078;2023-03-01T01:26:05;5.75;;;3.28;;
20391;SDS011;10355;53.688;10.078;2023-03-01T01:28:48;10.13;;;4.25;;
20391;SDS011;10355;53.688;10.078;2023-03-01T01:31:31;5.97;;;3.97;;
20391;SDS011;10355;53.688;10.078;2023-03-01T01:34:14;5.18;;;3.65;;
20391;SDS011;10355;53.688;10.078;2023-03-01T01:36:57;8.57;;;4.20;;
20391;SDS011;10355;53.688;10.078;2023-03-01T01:39:45;7.57;;;3.90;;
20391;SDS011;10355;53.688;10.078;2023-03-01T01:42:27;5.70;;;3.50;;
20391;SDS011;10355;53.688;10.078;2023-03-01T01:45:24;7.65;;;3.83;;
20391;SDS011;10355;53.688;10.078;2023-03-01T01:48:10;5.35;;;3.28;;
20391;SDS011;10355;53.688;10.078;2023-03-01T01:50:55;5.47;;;3.50;;
20391;SDS011;10355;53.688;10.078;2023-03-01T01:53:41;6.07;;;3.47;;
20391;SDS011;10355;53.688;10.078;2023-03-01T01:56:26;5.20;;;3.30;;
20391;SDS011;10355;53.688;10.078;2023-03-01T01:59:09;4.75;;;3.40;;
20391;SDS011;10355;53.688;10.078;2023-03-01T02:01:53;7.55;;;3.72;;
20391;SDS011;10355;53.688;10.078;2023-03-01T02:04:36;5.88;;;3.58;;
20391;SDS011;10355;53.688;10.078;2023-03-01T02:07:19;6.28;;;3.40;;
20391;SDS011;10355;53.688;10.078;2023-03-01T02:10:03;7.10;;;3.50;;
20391;SDS011;10355;53.688;10.078;2023-03-01T02:12:47;5.13;;;2.97;;
20391;SDS011;10355;53.688;10.078;2023-03-01T02:15:31;7.93;;;3.72;;
20391;SDS011;10355;53.688;10.078;2023-03-01T02:18:15;5.55;;;3.28;;
20391;SDS011;10355;53.688;10.078;2023-03-01T02:21:02;7.43;;;3.80;;
20391;SDS011;10355;53.688;10.078;2023-03-01T02:23:47;6.80;;;3.58;;
20391;SDS011;10355;53.688;10.078;2023-03-01T02:26:33;7.65;;;3.78;;
20391;SDS011;10355;53.688;10.078;2023-03-01T02:29:19;7.38;;;3.80;;
20391;SDS011;10355;53.688;10.078;2023-03-01T02:32:02;5.40;;;3.55;;
20391;SDS011;10355;53.688;10.078;2023-03-01T02:34:46;7.28;;;3.92;;
20391;SDS011;10355;53.688;10.078;2023-03-01T02:37:28;5.78;;;3.72;;
20391;SDS011;10355;53.688;10.078;2023-03-01T02:40:12;5.72;;;3.75;;
20391;SDS011;10355;53.688;10.078;2023-03-01T02:42:58;7.88;;;4.22;;
20391;SDS011;10355;53.688;10.078;2023-03-01T02:45:47;8.07;;;4.40;;
20391;SDS011;10355;53.688;10.078;2023-03-01T02:48:38;9.93;;;4.15;;
20391;SDS011;10355;53.688;10.078;2023-03-01T02:51:24;7.90;;;4.47;;
20391;SDS011;10355;53.688;10.078;2023-03-01T02:54:11;8.43;;;5.28;;
20391;SDS011;10355;53.688;10.078;2023-03-01T02:56:55;10.10;;;4.93;;
20391;SDS011;10355;53.688;10.078;2023-03-01T02:59:39;7.63;;;4.50;;
20391;SDS011;10355;53.688;10.078;2023-03-01T03:02:25;7.28;;;4.00;;
20391;SDS011;10355;53.688;10.078;2023-03-01T03:05:44;10.80;;;4.53;;
20391;SDS011;10355;53.688;10.078;2023-03-01T03:08:26;6.97;;;3.88;;
20391;SDS011;10355;53.688;10.078;2023-03-01T03:11:09;6.88;;;3.90;;
20391;SDS011;10355;53.688;10.078;2023-03-01T03:13:52;7.22;;;3.90;;
20391;SDS011;10355;53.688;10.078;2023-03-01T03:16:34;7.20;;;4.13;;
20391;SDS011;10355;53.688;10.078;2023-03-01T03:19:19;5.72;;;3.97;;
20391;SDS011;10355;53.688;10.078;2023-03-01T03:22:01;7.68;;;3.92;;
20391;SDS011;10355;53.688;10.078;2023-03-01T03:24:44;5.95;;;4.20;;
20391;SDS011;10355;53.688;10.078;2023-03-01T03:27:28;7.15;;;4.03;;
20391;SDS011;10355;53.688;10.078;2023-03-01T03:30:14;5.82;;;3.90;;
20391;SDS011;10355;53.688;10.078;2023-03-01T03:32:57;5.28;;;3.45;;
20391;SDS011;10355;53.688;10.078;2023-03-01T03:35:42;8.32;;;3.63;;
20391;SDS011;10355;53.688;10.078;2023-03-01T03:38:25;5.10;;;3.33;;
20391;SDS011;10355;53.688;10.078;2023-03-01T03:41:07;6.25;;;3.78;;
20391;SDS011;10355;53.688;10.078;2023-03-01T03:43:50;5.53;;;3.60;;
20391;SDS011;10355;53.688;10.078;2023-03-01T03:46:33;7.22;;;3.78;;
20391;SDS011;10355;53.688;10.078;2023-03-01T03:49:16;6.78;;;4.30;;
20391;SDS011;10355;53.688;10.078;2023-03-01T03:52:00;6.60;;;3.80;;
20391;SDS011;10355;53.688;10.078;2023-03-01T03:54:42;6.28;;;3.83;;
20391;SDS011;10355;53.688;10.078;2023-03-01T03:57:25;5.97;;;3.88;;
20391;SDS011;10355;53.688;10.078;2023-03-01T04:00:08;5.55;;;3.80;;
20391;SDS011;10355;53.688;10.078;2023-03-01T04:02:55;6.57;;;3.90;;
20391;SDS011;10355;53.688;10.078;2023-03-01T04:05:38;7.07;;;4.00;;
20391;SDS011;10355;53.688;10.078;2023-03-01T04:08:22;7.85;;;4.20;;
20391;SDS011;10355;53.688;10.078;2023-03-01T04:11:05;5.57;;;3.63;;
20391;SDS011;10355;53.688;10.078;2023-03-01T04:14:02;6.90;;;3.55;;
20391;SDS011;10355;53.688;10.078;2023-03-01T04:16:45;7.38;;;3.90;;
20391;SDS011;10355;53.688;10.078;2023-03-01T04:19:28;7.05;;;4.40;;
20391;SDS011;10355;53.688;10.078;2023-03-01T04:22:11;5.47;;;3.63;;
20391;SDS011;10355;53.688;10.078;2023-03-01T04:24:59;6.65;;;3.90;;
20391;SDS011;10355;53.688;10.078;2023-03-01T04:27:47;5.28;;;3.45;;
20391;SDS011;10355;53.688;10.078;2023-03-01T04:30:29;7.10;;;3.97;;
20391;SDS011;10355;53.688;10.078;2023-03-01T04:33:17;6.47;;;3.78;;
20391;SDS011;10355;53.688;10.078;2023-03-01T04:36:00;5.28;;;3.58;;
20391;SDS011;10355;53.688;10.078;2023-03-01T04:38:46;5.88;;;3.63;;
20391;SDS011;10355;53.688;10.078;2023-03-01T04:41:30;5.70;;;3.67;;
20391;SDS011;10355;53.688;10.078;2023-03-01T04:44:13;6.78;;;3.47;;
20391;SDS011;10355;53.688;10.078;2023-03-01T04:46:55;6.68;;;3.90;;
20391;SDS011;10355;53.688;10.078;2023-03-01T04:49:38;8.20;;;4.15;;
20391;SDS011;10355;53.688;10.078;2023-03-01T04:52:21;6.95;;;3.67;;
20391;SDS011;10355;53.688;10.078;2023-03-01T04:55:04;6.40;;;3.85;;
20391;SDS011;10355;53.688;10.078;2023-03-01T04:57:48;5.82;;;3.65;;
20391;SDS011;10355;53.688;10.078;2023-03-01T05:00:31;7.72;;;4.20;;
20391;SDS011;10355;53.688;10.078;2023-03-01T05:03:13;7.28;;;3.70;;
20391;SDS011;10355;53.688;10.078;2023-03-01T05:05:59;5.32;;;3.67;;
20391;SDS011;10355;53.688;10.078;2023-03-01T05:08:42;6.35;;;3.95;;
20391;SDS011;10355;53.688;10.078;2023-03-01T05:11:25;6.18;;;3.95;;
20391;SDS011;10355;53.688;10.078;2023-03-01T05:14:10;5.53;;;3.97;;
20391;SDS011;10355;53.688;10.078;2023-03-01T05:16:53;8.80;;;3.92;;
20391;SDS011;10355;53.688;10.078;2023-03-01T05:19:36;5.38;;;3.75;;
20391;SDS011;10355;53.688;10.078;2023-03-01T05:22:18;6.65;;;3.67;;
20391;SDS011;10355;53.688;10.078;2023-03-01T05:25:01;6.18;;;3.90;;
20391;SDS011;10355;53.688;10.078;2023-03-01T05:27:44;5.72;;;3.80;;
20391;SDS011;10355;53.688;10.078;2023-03-01T05:30:28;6.32;;;3.88;;
20391;SDS011;10355;53.688;10.078;2023-03-01T05:33:11;7.82;;;3.97;;
20391;SDS011;10355;53.688;10.078;2023-03-01T05:35:59;8.57;;;4.35;;
20391;SDS011;10355;53.688;10.078;2023-03-01T05:38:41;6.65;;;3.72;;
20391;SDS011;10355;53.688;10.078;2023-03-01T05:41:25;7.25;;;4.05;;
20391;SDS011;10355;53.688;10.078;2023-03-01T05:44:08;7.43;;;4.15;;
20391;SDS011;10355;53.688;10.078;2023-03-01T05:46:51;7.25;;;3.67;;
20391;SDS011;10355;53.688;10.078;2023-03-01T05:49:34;5.20;;;3.47;;
20391;SDS011;10355;53.688;10.078;2023-03-01T05:52:20;5.97;;;3.40;;
20391;SDS011;10355;53.688;10.078;2023-03-01T05:55:03;7.57;;;3.47;;
20391;SDS011;10355;53.688;10.078;2023-03-01T05:57:46;6.80;;;3.45;;
20391;SDS011;10355;53.688;10.078;2023-03-01T06:00:29;5.40;;;3.50;;
20391;SDS011;10355;53.688;10.078;2023-03-01T06:03:14;5.30;;;3.58;;
20391;SDS011;10355;53.688;10.078;2023-03-01T06:05:57;5.97;;;3.47;;
20391;SDS011;10355;53.688;10.078;2023-03-01T06:08:40;6.25;;;4.10;;
20391;SDS011;10355;53.688;10.078;2023-03-01T06:11:22;8.00;;;3.95;;
20391;SDS011;10355;53.688;10.078;2023-03-01T06:14:05;7.28;;;4.30;;
20391;SDS011;10355;53.688;10.078;2023-03-01T06:16:49;7.57;;;4.38;;
20391;SDS011;10355;53.688;10.078;2023-03-01T06:19:33;7.38;;;4.18;;
20391;SDS011;10355;53.688;10.078;2023-03-01T06:22:15;5.32;;;3.78;;
20391;SDS011;10355;53.688;10.078;2023-03-01T06:24:58;8.95;;;3.97;;
20391;SDS011;10355;53.688;10.078;2023-03-01T06:27:41;8.43;;;4.30;;
20391;SDS011;10355;53.688;10.078;2023-03-01T06:30:24;8.98;;;5.40;;
20391;SDS011;10355;53.688;10.078;2023-03-01T06:33:07;7.43;;;4.35;;
20391;SDS011;10355;53.688;10.078;2023-03-01T06:35:51;5.97;;;4.13;;
20391;SDS011;10355;53.688;10.078;2023-03-01T06:38:33;8.75;;;4.93;;
20391;SDS011;10355;53.688;10.078;2023-03-01T06:41:16;10.48;;;4.53;;
20391;SDS011;10355;53.688;10.078;2023-03-01T06:43:59;8.13;;;4.20;;
20391;SDS011;10355;53.688;10.078;2023-03-01T06:46:41;8.23;;;4.80;;
20391;SDS011;10355;53.688;10.078;2023-03-01T06:49:24;9.27;;;4.10;;
20391;SDS011;10355;53.688;10.078;2023-03-01T06:52:08;6.13;;;4.10;;
20391;SDS011;10355;53.688;10.078;2023-03-01T06:54:51;8.25;;;4.63;;
20391;SDS011;10355;53.688;10.078;2023-03-01T06:57:34;9.30;;;4.50;;
20391;SDS011;10355;53.688;10.078;2023-03-01T07:00:17;8.00;;;4.70;;
20391;SDS011;10355;53.688;10.078;2023-03-01T07:03:00;10.98;;;5.50;;
20391;SDS011;10355;53.688;10.078;2023-03-01T07:05:44;8.57;;;5.38;;
20391;SDS011;10355;53.688;10.078;2023-03-01T07:08:28;6.93;;;4.25;;
20391;SDS011;10355;53.688;10.078;2023-03-01T07:11:10;7.22;;;4.20;;
20391;SDS011;10355;53.688;10.078;2023-03-01T07:13:54;6.90;;;3.85;;
20391;SDS011;10355;53.688;10.078;2023-03-01T07:16:37;7.72;;;4.50;;
20391;SDS011;10355;53.688;10.078;2023-03-01T07:19:20;8.20;;;4.88;;
20391;SDS011;10355;53.688;10.078;2023-03-01T07:22:03;7.90;;;4.68;;
20391;SDS011;10355;53.688;10.078;2023-03-01T07:24:50;10.23;;;5.80;;
20391;SDS011;10355;53.688;10.078;2023-03-01T07:27:32;9.05;;;6.03;;
20391;SDS011;10355;53.688;10.078;2023-03-01T07:30:15;11.70;;;6.20;;
20391;SDS011;10355;53.688;10.078;2023-03-01T07:32:58;11.43;;;6.45;;
20391;SDS011;10355;53.688;10.078;2023-03-01T07:35:41;10.98;;;6.45;;
20391;SDS011;10355;53.688;10.078;2023-03-01T07:38:24;8.48;;;5.78;;
20391;SDS011;10355;53.688;10.078;2023-03-01T07:41:08;9.65;;;6.30;;
20391;SDS011;10355;53.688;10.078;2023-03-01T07:43:50;9.30;;;5.35;;
20391;SDS011;10355;53.688;10.078;2023-03-01T07:46:33;9.45;;;6.20;;
20391;SDS011;10355;53.688;10.078;2023-03-01T07:49:15;11.15;;;6.32;;
20391;SDS011;10355;53.688;10.078;2023-03-01T07:51:58;12.20;;;5.93;;
20391;SDS011;10355;53.688;10.078;2023-03-01T07:54:42;11.68;;;6.68;;
20391;SDS011;10355;53.688;10.078;2023-03-01T07:57:26;13.02;;;6.43;;
20391;SDS011;10355;53.688;10.078;2023-03-01T08:00:10;12.00;;;6.80;;
20391;SDS011;10355;53.688;10.078;2023-03-01T08:02:53;9.88;;;6.68;;
20391;SDS011;10355;53.688;10.078;2023-03-01T08:05:36;11.60;;;7.30;;
20391;SDS011;10355;53.688;10.078;2023-03-01T08:08:18;12.43;;;7.13;;
20391;SDS011;10355;53.688;10.078;2023-03-01T08:11:01;12.40;;;7.22;;
20391;SDS011;10355;53.688;10.078;2023-03-01T08:13:46;11.05;;;7.28;;
20391;SDS011;10355;53.688;10.078;2023-03-01T08:16:33;14.88;;;7.93;;
20391;SDS011;10355;53.688;10.078;2023-03-01T08:19:16;12.82;;;7.80;;
20391;SDS011;10355;53.688;10.078;2023-03-01T08:21:59;15.82;;;8.35;;
20391;SDS011;10355;53.688;10.078;2023-03-01T08:24:42;11.52;;;6.95;;
20391;SDS011;10355;53.688;10.078;2023-03-01T08:27:24;14.15;;;7.10;;
20391;SDS011;10355;53.688;10.078;2023-03-01T08:30:09;13.63;;;7.50;;
20391;SDS011;10355;53.688;10.078;2023-03-01T08:32:52;12.40;;;7.70;;
20391;SDS011;10355;53.688;10.078;2023-03-01T08:35:34;11.93;;;7.68;;
20391;SDS011;10355;53.688;10.078;2023-03-01T08:38:17;13.70;;;7.97;;
20391;SDS011;10355;53.688;10.078;2023-03-01T08:41:00;13.02;;;7.68;;
20391;SDS011;10355;53.688;10.078;2023-03-01T08:43:43;14.95;;;7.50;;
20391;SDS011;10355;53.688;10.078;2023-03-01T08:46:28;12.93;;;7.35;;
20391;SDS011;10355;53.688;10.078;2023-03-01T08:49:12;12.07;;;6.90;;
20391;SDS011;10355;53.688;10.078;2023-03-01T08:51:54;12.23;;;7.38;;
20391;SDS011;10355;53.688;10.078;2023-03-01T08:54:37;13.48;;;6.95;;
20391;SDS011;10355;53.688;10.078;2023-03-01T08:57:20;12.13;;;7.20;;
20391;SDS011;10355;53.688;10.078;2023-03-01T09:00:03;14.68;;;7.30;;
20391;SDS011;10355;53.688;10.078;2023-03-01T09:02:51;12.15;;;6.90;;
20391;SDS011;10355;53.688;10.078;2023-03-01T09:05:33;10.10;;;6.50;;
20391;SDS011;10355;53.688;10.078;2023-03-01T09:08:18;13.32;;;6.72;;
20391;SDS011;10355;53.688;10.078;2023-03-01T09:11:01;12.68;;;7.00;;
20391;SDS011;10355;53.688;10.078;2023-03-01T09:13:44;12.30;;;6.95;;
20391;SDS011;10355;53.688;10.078;2023-03-01T09:16:27;12.80;;;7.18;;
20391;SDS011;10355;53.688;10.078;2023-03-01T09:19:13;10.60;;;6.38;;
20391;SDS011;10355;53.688;10.078;2023-03-01T09:21:55;11.15;;;6.63;;
20391;SDS011;10355;53.688;10.078;2023-03-01T09:24:39;13.07;;;6.95;;
20391;SDS011;10355;53.688;10.078;2023-03-01T09:27:22;11.52;;;6.82;;
20391;SDS011;10355;53.688;10.078;2023-03-01T09:30:06;10.43;;;6.60;;
20391;SDS011;10355;53.688;10.078;2023-03-01T09:32:50;13.38;;;6.90;;
20391;SDS011;10355;53.688;10.078;2023-03-01T09:35:35;12.70;;;6.90;;
20391;SDS011;10355;53.688;10.078;2023-03-01T09:38:17;13.35;;;6.53;;
20391;SDS011;10355;53.688;10.078;2023-03-01T09:41:00;11.05;;;5.80;;
20391;SDS011;10355;53.688;10.078;2023-03-01T09:43:44;11.73;;;6.10;;
20391;SDS011;10355;53.688;10.078;2023-03-01T09:46:27;12.00;;;5.68;;
20391;SDS011;10355;53.688;10.078;2023-03-01T09:49:12;9.10;;;5.22;;
20391;SDS011;10355;53.688;10.078;2023-03-01T09:52:03;11.10;;;5.63;;
20391;SDS011;10355;53.688;10.078;2023-03-01T09:54:49;12.30;;;5.75;;
20391;SDS011;10355;53.688;10.078;2023-03-01T09:57:34;11.35;;;5.95;;
20391;SDS011;10355;53.688;10.078;2023-03-01T10:00:24;9.52;;;5.53;;
20391;SDS011;10355;53.688;10.078;2023-03-01T10:03:11;10.43;;;6.07;;
20391;SDS011;10355;53.688;10.078;2023-03-01T10:05:56;12.45;;;5.93;;
20391;SDS011;10355;53.688;10.078;2023-03-01T10:08:41;10.45;;;5.97;;
20391;SDS011;10355;53.688;10.078;2023-03-01T10:11:26;10.90;;;6.30;;
20391;SDS011;10355;53.688;10.078;2023-03-01T10:14:13;12.02;;;6.13;;
20391;SDS011;10355;53.688;10.078;2023-03-01T10:16:58;10.73;;;6.10;;
20391;SDS011;10355;53.688;10.078;2023-03-01T10:19:44;12.15;;;5.88;;
20391;SDS011;10355;53.688;10.078;2023-03-01T10:22:28;11.45;;;6.07;;
20391;SDS011;10355;53.688;10.078;2023-03-01T10:25:13;10.65;;;6.28;;
20391;SDS011;10355;53.688;10.078;2023-03-01T10:27:59;11.25;;;6.45;;
20391;SDS011;10355;53.688;10.078;2023-03-01T10:30:43;10.60;;;6.35;;
20391;SDS011;10355;53.688;10.078;2023-03-01T10:33:27;12.60;;;5.82;;
20391;SDS011;10355;53.688;10.078;2023-03-01T10:36:11;13.00;;;6.90;;
20391;SDS011;10355;53.688;10.078;2023-03-01T10:38:54;13.50;;;6.18;;
20391;SDS011;10355;53.688;10.078;2023-03-01T10:41:44;13.52;;;6.65;;
20391;SDS011;10355;53.688;10.078;2023-03-01T10:44:41;11.15;;;6.13;;
20391;SDS011;10355;53.688;10.078;2023-03-01T10:47:24;10.00;;;5.68;;
20391;SDS011;10355;53.688;10.078;2023-03-01T10:50:17;13.38;;;6.72;;
20391;SDS011;10355;53.688;10.078;2023-03-01T10:53:01;11.07;;;6.38;;
20391;SDS011;10355;53.688;10.078;2023-03-01T10:55:45;11.27;;;6.47;;
20391;SDS011;10355;53.688;10.078;2023-03-01T10:58:29;14.05;;;7.28;;
20391;SDS011;10355;53.688;10.078;2023-03-01T11:01:24;13.68;;;6.70;;
20391;SDS011;10355;53.688;10.078;2023-03-01T11:04:11;11.95;;;6.60;;
20391;SDS011;10355;53.688;10.078;2023-03-01T11:06:57;11.90;;;6.47;;
20391;SDS011;10355;53.688;10.078;2023-03-01T11:09:40;12.82;;;6.18;;
20391;SDS011;10355;53.688;10.078;2023-03-01T11:12:23;12.95;;;6.50;;
20391;SDS011;10355;53.688;10.078;2023-03-01T11:15:15;12.88;;;6.60;;
20391;SDS011;10355;53.688;10.078;2023-03-01T11:18:02;12.38;;;6.72;;
20391;SDS011;10355;53.688;10.078;2023-03-01T11:20:54;10.20;;;5.63;;
20391;SDS011;10355;53.688;10.078;2023-03-01T11:23:37;9.70;;;5.32;;
20391;SDS011;10355;53.688;10.078;2023-03-01T11:26:21;11.77;;;6.00;;
20391;SDS011;10355;53.688;10.078;2023-03-01T11:29:06;10.10;;;5.78;;
20391;SDS011;10355;53.688;10.078;2023-03-01T11:31:51;10.90;;;5.88;;
20391;SDS011;10355;53.688;10.078;2023-03-01T11:34:39;9.05;;;5.30;;
20391;SDS011;10355;53.688;10.078;2023-03-01T11:37:29;10.15;;;5.30;;
20391;SDS011;10355;53.688;10.078;2023-03-01T11:40:15;9.20;;;4.63;;
20391;SDS011;10355;53.688;10.078;2023-03-01T11:43:06;8.52;;;4.53;;
20391;SDS011;10355;53.688;10.078;2023-03-01T11:45:56;9.82;;;5.28;;
20391;SDS011;10355;53.688;10.078;2023-03-01T11:48:46;9.80;;;5.00;;
20391;SDS011;10355;53.688;10.078;2023-03-01T11:51:37;9.85;;;4.65;;
20391;SDS011;10355;53.688;10.078;2023-03-01T11:54:25;10.23;;;4.75;;
20391;SDS011;10355;53.688;10.078;2023-03-01T11:57:11;9.05;;;5.20;;
20391;SDS011;10355;53.688;10.078;2023-03-01T12:00:03;9.32;;;4.93;;
20391;SDS011;10355;53.688;10.078;2023-03-01T12:03:02;8.10;;;4.25;;
20391;SDS011;10355;53.688;10.078;2023-03-01T12:09:09;7.43;;;4.40;;
20391;SDS011;10355;53.688;10.078;2023-03-01T12:12:00;8.80;;;4.45;;
20391;SDS011;10355;53.688;10.078;2023-03-01T12:14:47;6.78;;;4.07;;
20391;SDS011;10355;53.688;10.078;2023-03-01T12:17:44;6.95;;;3.88;;
20391;SDS011;10355;53.688;10.078;2023-03-01T12:20:32;6.85;;;3.75;;
20391;SDS011;10355;53.688;10.078;2023-03-01T12:23:25;5.90;;;3.67;;
20391;SDS011;10355;53.688;10.078;2023-03-01T12:26:13;4.93;;;3.40;;
20391;SDS011;10355;53.688;10.078;2023-03-01T12:29:05;6.60;;;3.00;;
20391;SDS011;10355;53.688;10.078;2023-03-01T12:32:06;4.07;;;2.55;;
20391;SDS011;10355;53.688;10.078;2023-03-01T12:35:03;4.47;;;2.63;;
20391;SDS011;10355;53.688;10.078;2023-03-01T12:37:50;4.25;;;2.22;;
20391;SDS011;10355;53.688;10.078;2023-03-01T12:43:44;4.10;;;2.30;;
20391;SDS011;10355;53.688;10.078;2023-03-01T12:46:32;3.33;;;2.00;;
20391;SDS011;10355;53.688;10.078;2023-03-01T12:49:18;4.75;;;2.17;;
20391;SDS011;10355;53.688;10.078;2023-03-01T12:52:03;4.45;;;2.55;;
20391;SDS011;10355;53.688;10.078;2023-03-01T12:54:51;5.28;;;2.28;;
20391;SDS011;10355;53.688;10.078;2023-03-01T12:57:37;4.38;;;2.55;;
20391;SDS011;10355;53.688;10.078;2023-03-01T13:00:24;3.50;;;2.50;;
20391;SDS011;10355;53.688;10.078;2023-03-01T13:03:11;6.80;;;3.33;;
20391;SDS011;10355;53.688;10.078;2023-03-01T13:05:59;5.72;;;2.90;;
20391;SDS011;10355;53.688;10.078;2023-03-01T13:08:47;5.68;;;2.70;;
20391;SDS011;10355;53.688;10.078;2023-03-01T13:11:31;5.55;;;3.05;;
20391;SDS011;10355;53.688;10.078;2023-03-01T13:14:37;7.85;;;3.38;;
20391;SDS011;10355;53.688;10.078;2023-03-01T13:17:32;5.70;;;3.20;;
20391;SDS011;10355;53.688;10.078;2023-03-01T13:20:15;5.38;;;3.25;;
20391;SDS011;10355;53.688;10.078;2023-03-01T13:23:06;7.00;;;3.60;;
20391;SDS011;10355;53.688;10.078;2023-03-01T13:26:00;6.95;;;3.30;;
20391;SDS011;10355;53.688;10.078;2023-03-01T13:28:47;5.57;;;3.70;;
20391;SDS011;10355;53.688;10.078;2023-03-01T13:34:43;6.00;;;3.75;;
20391;SDS011;10355;53.688;10.078;2023-03-01T13:37:27;7.15;;;3.95;;
20391;SDS011;10355;53.688;10.078;2023-03-01T13:43:22;5.40;;;3.20;;
20391;SDS011;10355;53.688;10.078;2023-03-01T13:46:14;6.65;;;3.13;;
20391;SDS011;10355;53.688;10.078;2023-03-01T13:48:59;5.05;;;3.53;;
20391;SDS011;10355;53.688;10.078;2023-03-01T13:51:43;5.88;;;3.10;;
20391;SDS011;10355;53.688;10.078;2023-03-01T13:54:29;4.78;;;3.28;;
20391;SDS011;10355;53.688;10.078;2023-03-01T13:57:17;7.57;;;3.20;;
20391;SDS011;10355;53.688;10.078;2023-03-01T14:00:01;6.00;;;3.30;;
20391;SDS011;10355;53.688;10.078;2023-03-01T14:02:58;7.45;;;3.22;;
20391;SDS011;10355;53.688;10.078;2023-03-01T14:05:57;6.00;;;3.60;;
20391;SDS011;10355;53.688;10.078;2023-03-01T14:09:02;5.45;;;3.63;;
20391;SDS011;10355;53.688;10.078;2023-03-01T14:11:51;5.72;;;3.53;;
20391;SDS011;10355;53.688;10.078;2023-03-01T14:14:42;7.88;;;3.55;;
20391;SDS011;10355;53.688;10.078;2023-03-01T14:17:35;5.50;;;3.30;;
20391;SDS011;10355;53.688;10.078;2023-03-01T14:20:21;5.88;;;3.65;;
20391;SDS011;10355;53.688;10.078;2023-03-01T14:23:08;6.45;;;3.72;;
20391;SDS011;10355;53.688;10.078;2023-03-01T14:25:54;5.97;;;3.60;;
20391;SDS011;10355;53.688;10.078;2023-03-01T14:28:37;5.65;;;3.40;;
20391;SDS011;10355;53.688;10.078;2023-03-01T14:34:33;5.53;;;3.30;;
20391;SDS011;10355;53.688;10.078;2023-03-01T14:37:20;6.38;;;3.97;;
20391;SDS011;10355;53.688;10.078;2023-03-01T14:40:03;6.72;;;3.70;;
20391;SDS011;10355;53.688;10.078;2023-03-01T14:42:48;5.47;;;3.17;;
20391;SDS011;10355;53.688;10.078;2023-03-01T14:45:33;6.45;;;3.67;;
20391;SDS011;10355;53.688;10.078;2023-03-01T14:48:16;7.03;;;4.05;;
20391;SDS011;10355;53.688;10.078;2023-03-01T14:50:59;4.60;;;3.05;;
20391;SDS011;10355;53.688;10.078;2023-03-01T14:53:42;4.75;;;2.88;;
20391;SDS011;10355;53.688;10.078;2023-03-01T14:56:37;5.60;;;3.50;;
20391;SDS011;10355;53.688;10.078;2023-03-01T14:59:26;6.10;;;3.78;;
20391;SDS011;10355;53.688;10.078;2023-03-01T15:02:11;5.40;;;3.38;;
20391;SDS011;10355;53.688;10.078;2023-03-01T15:05:00;5.90;;;3.38;;
20391;SDS011;10355;53.688;10.078;2023-03-01T15:07:44;5.75;;;3.13;;
20391;SDS011;10355;53.688;10.078;2023-03-01T15:10:31;5.88;;;3.58;;
20391;SDS011;10355;53.688;10.078;2023-03-01T15:13:19;6.75;;;3.67;;
20391;SDS011;10355;53.688;10.078;2023-03-01T15:16:06;6.22;;;3.67;;
20391;SDS011;10355;53.688;10.078;2023-03-01T15:18:50;5.70;;;3.45;;
20391;SDS011;10355;53.688;10.078;2023-03-01T15:21:34;5.20;;;3.13;;
20391;SDS011;10355;53.688;10.078;2023-03-01T15:24:17;5.75;;;3.15;;
20391;SDS011;10355;53.688;10.078;2023-03-01T15:27:02;5.65;;;3.15;;
20391;SDS011;10355;53.688;10.078;2023-03-01T15:29:48;5.68;;;2.95;;
20391;SDS011;10355;53.688;10.078;2023-03-01T15:32:33;5.85;;;3.42;;
20391;SDS011;10355;53.688;10.078;2023-03-01T15:35:34;6.45;;;3.55;;
20391;SDS011;10355;53.688;10.078;2023-03-01T15:38:28;7.35;;;3.90;;
20391;SDS011;10355;53.688;10.078;2023-03-01T15:41:22;7.05;;;4.38;;
20391;SDS011;10355;53.688;10.078;2023-03-01T15:44:14;8.68;;;4.70;;
20391;SDS011;10355;53.688;10.078;2023-03-01T15:46:57;9.70;;;5.20;;
20391;SDS011;10355;53.688;10.078;2023-03-01T15:49:41;12.13;;;5.30;;
20391;SDS011;10355;53.688;10.078;2023-03-01T15:52:36;9.77;;;4.78;;
20391;SDS011;10355;53.688;10.078;2023-03-01T15:55:21;10.55;;;5.75;;
20391;SDS011;10355;53.688;10.078;2023-03-01T15:58:05;9.93;;;5.65;;
20391;SDS011;10355;53.688;10.078;2023-03-01T16:00:49;12.38;;;6.10;;
20391;SDS011;10355;53.688;10.078;2023-03-01T16:03:42;9.35;;;5.45;;
20391;SDS011;10355;53.688;10.078;2023-03-01T16:06:26;10.95;;;5.63;;
20391;SDS011;10355;53.688;10.078;2023-03-01T16:09:09;9.02;;;5.13;;
20391;SDS011;10355;53.688;10.078;2023-03-01T16:11:53;10.85;;;5.00;;
20391;SDS011;10355;53.688;10.078;2023-03-01T16:14:36;8.95;;;5.10;;
20391;SDS011;10355;53.688;10.078;2023-03-01T16:17:20;8.85;;;5.20;;
20391;SDS011;10355;53.688;10.078;2023-03-01T16:20:02;8.60;;;4.95;;
20391;SDS011;10355;53.688;10.078;2023-03-01T16:22:48;7.80;;;4.80;;
20391;SDS011;10355;53.688;10.078;2023-03-01T16:25:31;10.95;;;4.80;;
20391;SDS011;10355;53.688;10.078;2023-03-01T16:28:14;8.00;;;4.72;;
20391;SDS011;10355;53.688;10.078;2023-03-01T16:30:56;8.85;;;4.30;;
20391;SDS011;10355;53.688;10.078;2023-03-01T16:33:40;6.05;;;4.18;;